La rose des vents
Donnes mto: Semaine 18/02/08 - 24/02/08 (S 8)
Date Horaire Temp. E. Hum. E. P.atmo. Pluie Vent 1mn Direction Ensoleilleme Ev.Tr. Solaire P. de rose Temp au vent Rafales
18/02/2008 00:00 5,2 C 66 % 1036,2 hPa 0,0 l/m 10,2 km/h (2 Bft) O-NO 0,00 h 0,051 mm 0 W/m -0,5 C 2,9 C 14,1 km/h (3 Bft)
18/02/2008 01:00 4,1 C 69 % 1035,6 hPa 0,0 l/m 9,6 km/h (2 Bft) O-NO 0,00 h 0,051 mm 0 W/m -1,1 C 1,7 C 12,6 km/h (3 Bft)
18/02/2008 02:00 2,8 C 74 % 1035,0 hPa 0,0 l/m 7,1 km/h (2 Bft) O-NO 0,00 h 0,051 mm 0 W/m -1,5 C 0,9 C 9,5 km/h (2 Bft)
18/02/2008 03:00 2,1 C 77 % 1034,3 hPa 0,0 l/m 5,1 km/h (1 Bft) O-NO 0,00 h 0,025 mm 0 W/m -1,5 C 0,9 C 7,6 km/h (2 Bft)
18/02/2008 04:00 2,8 C 76 % 1033,6 hPa 0,0 l/m 4,2 km/h (1 Bft) NO 0,00 h 0,025 mm 0 W/m -1,1 C 2,0 C 6,5 km/h (2 Bft)
18/02/2008 05:00 2,0 C 77 % 1033,3 hPa 0,0 l/m 3,8 km/h (1 Bft) O-NO 0,00 h 0,025 mm 0 W/m -1,7 C 1,4 C 6,5 km/h (2 Bft)
18/02/2008 06:00 1,5 C 78 % 1033,0 hPa 0,0 l/m 2,7 km/h (1 Bft) O-NO 0,00 h 0,025 mm 0 W/m -1,9 C 1,4 C 4,8 km/h (1 Bft)
18/02/2008 07:00 1,5 C 80 % 1032,7 hPa 0,0 l/m 3,2 km/h (1 Bft) O-NO 0,22 h 0,025 mm 20 W/m -1,6 C 1,1 C 5,5 km/h (1 Bft)
18/02/2008 08:00 3,0 C 76 % 1032,6 hPa 0,0 l/m 2,9 km/h (1 Bft) O-NO 1,00 h 0,025 mm 127 W/m -0,8 C 2,6 C 4,7 km/h (1 Bft)
18/02/2008 09:00 6,1 C 65 % 1032,3 hPa 0,0 l/m 2,0 km/h (1 Bft) E 1,00 h 0,051 mm 285 W/m -0,0 C 6,0 C 3,8 km/h (1 Bft)
18/02/2008 10:00 7,3 C 61 % 1032,1 hPa 0,0 l/m 3,3 km/h (1 Bft) S 1,00 h 0,127 mm 421 W/m 0,4 C 7,0 C 5,7 km/h (1 Bft)
18/02/2008 11:00 8,7 C 59 % 1031,8 hPa 0,0 l/m 3,3 km/h (1 Bft) S-SE 1,00 h 0,203 mm 509 W/m 1,0 C 8,4 C 5,7 km/h (1 Bft)
18/02/2008 12:00 10,1 C 57 % 1031,1 hPa 0,0 l/m 5,6 km/h (1 Bft) SE 1,00 h 0,254 mm 547 W/m 2,0 C 9,8 C 9,7 km/h (2 Bft)
18/02/2008 13:00 10,2 C 66 % 1030,2 hPa 0,0 l/m 8,8 km/h (2 Bft) E 0,73 h 0,279 mm 441 W/m 4,2 C 10,0 C 13,1 km/h (3 Bft)
18/02/2008 14:00 9,3 C 75 % 1029,4 hPa 0,0 l/m 4,6 km/h (1 Bft) N 0,00 h 0,229 mm 145 W/m 5,0 C 8,9 C 7,0 km/h (2 Bft)
18/02/2008 15:00 10,5 C 70 % 1028,7 hPa 0,0 l/m 9,6 km/h (2 Bft) S-SE 0,27 h 0,076 mm 190 W/m 5,2 C 10,4 C 14,1 km/h (3 Bft)
18/02/2008 16:00 10,6 C 67 % 1028,3 hPa 0,0 l/m 14,4 km/h (3 Bft) S 0,60 h 0,127 mm 168 W/m 4,7 C 10,6 C 19,7 km/h (3 Bft)
18/02/2008 17:00 9,9 C 70 % 1028,0 hPa 0,0 l/m 12,0 km/h (2 Bft) S-SO 0,57 h 0,127 mm 55 W/m 4,6 C 9,1 C 16,5 km/h (3 Bft)
18/02/2008 18:00 8,8 C 74 % 1028,0 hPa 0,0 l/m 10,8 km/h (2 Bft) SO 0,00 h 0,076 mm 5 W/m 4,4 C 7,1 C 14,8 km/h (3 Bft)
18/02/2008 19:00 7,6 C 76 % 1028,1 hPa 0,0 l/m 9,5 km/h (2 Bft) SO 0,00 h 0,025 mm 0 W/m 3,6 C 5,9 C 12,1 km/h (2 Bft)
18/02/2008 20:00 6,7 C 78 % 1027,9 hPa 0,0 l/m 8,0 km/h (2 Bft) O 0,00 h 0,025 mm 0 W/m 3,1 C 5,1 C 11,3 km/h (2 Bft)
18/02/2008 21:00 6,1 C 79 % 1027,8 hPa 0,0 l/m 10,0 km/h (2 Bft) O-SO 0,00 h 0,025 mm 0 W/m 2,7 C 4,1 C 14,0 km/h (3 Bft)
18/02/2008 22:00 5,8 C 78 % 1027,7 hPa 0,0 l/m 7,1 km/h (2 Bft) O 0,00 h 0,025 mm 0 W/m 2,3 C 4,3 C 10,2 km/h (2 Bft)
18/02/2008 23:00 5,3 C 79 % 1027,6 hPa 0,0 l/m 5,4 km/h (1 Bft) O 0,00 h 0,025 mm 0 W/m 1,8 C 4,3 C 6,9 km/h (2 Bft)
19/02/2008 00:00 4,6 C 79 % 1027,4 hPa 0,0 l/m 3,9 km/h (1 Bft) NO 0,00 h 0,025 mm 0 W/m 1,3 C 4,0 C 6,1 km/h (2 Bft)
19/02/2008 01:00 4,6 C 81 % 1027,2 hPa 0,0 l/m 5,0 km/h (1 Bft) NO 0,00 h 0,025 mm 0 W/m 1,6 C 3,6 C 7,1 km/h (2 Bft)
19/02/2008 02:00 4,2 C 82 % 1026,8 hPa 0,0 l/m 3,8 km/h (1 Bft) NO 0,00 h 0,025 mm 0 W/m 1,3 C 3,7 C 5,8 km/h (2 Bft)
19/02/2008 03:00 4,1 C 80 % 1026,3 hPa 0,0 l/m 7,4 km/h (2 Bft) O 0,00 h 0,025 mm 0 W/m 1,0 C 2,3 C 9,9 km/h (2 Bft)
19/02/2008 04:00 3,4 C 77 % 1026,0 hPa 0,0 l/m 4,2 km/h (1 Bft) NO 0,00 h 0,025 mm 0 W/m -0,2 C 2,6 C 6,2 km/h (2 Bft)
19/02/2008 05:00 3,3 C 78 % 1026,2 hPa 0,0 l/m 4,0 km/h (1 Bft) O-NO 0,00 h 0,025 mm 0 W/m -0,2 C 2,6 C 6,5 km/h (2 Bft)
19/02/2008 06:00 3,4 C 77 % 1026,2 hPa 0,0 l/m 4,2 km/h (1 Bft) O-NO 0,00 h 0,025 mm 0 W/m -0,2 C 2,7 C 6,7 km/h (2 Bft)
19/02/2008 07:00 3,6 C 78 % 1026,3 hPa 0,0 l/m 4,2 km/h (1 Bft) O-NO 0,40 h 0,025 mm 24 W/m 0,2 C 3,0 C 6,6 km/h (2 Bft)
19/02/2008 08:00 5,5 C 73 % 1026,6 hPa 0,0 l/m 2,7 km/h (1 Bft) NO 1,00 h 0,025 mm 140 W/m 1,1 C 5,3 C 4,3 km/h (1 Bft)
19/02/2008 09:00 8,2 C 65 % 1026,9 hPa 0,0 l/m 1,7 km/h (1 Bft) N-NE 1,00 h 0,076 mm 298 W/m 2,0 C 8,2 C 3,0 km/h (1 Bft)
19/02/2008 10:00 10,1 C 61 % 1027,1 hPa 0,0 l/m 4,4 km/h (1 Bft) E 1,00 h 0,152 mm 435 W/m 3,0 C 10,0 C 6,9 km/h (2 Bft)
19/02/2008 11:00 11,3 C 59 % 1026,9 hPa 0,0 l/m 5,7 km/h (1 Bft) E 1,00 h 0,229 mm 547 W/m 3,5 C 11,3 C 9,2 km/h (2 Bft)
19/02/2008 12:00 11,8 C 56 % 1026,5 hPa 0,0 l/m 7,7 km/h (2 Bft) E 0,68 h 0,279 mm 494 W/m 3,4 C 11,8 C 11,9 km/h (2 Bft)
19/02/2008 13:00 11,8 C 57 % 1026,2 hPa 0,0 l/m 8,7 km/h (2 Bft) S-SE 1,00 h 0,279 mm 572 W/m 3,5 C 11,8 C 14,4 km/h (3 Bft)
19/02/2008 14:00 11,4 C 59 % 1025,9 hPa 0,0 l/m 8,4 km/h (2 Bft) S-SE 1,00 h 0,330 mm 492 W/m 3,7 C 11,4 C 13,0 km/h (3 Bft)
19/02/2008 15:00 11,2 C 62 % 1025,5 hPa 0,0 l/m 7,4 km/h (2 Bft) E 0,87 h 0,279 mm 373 W/m 4,1 C 11,2 C 12,2 km/h (2 Bft)
19/02/2008 16:00 10,3 C 66 % 1025,2 hPa 0,0 l/m 6,5 km/h (2 Bft) S-SE 0,35 h 0,203 mm 161 W/m 4,3 C 9,9 C 9,6 km/h (2 Bft)
19/02/2008 17:00 9,3 C 70 % 1025,1 hPa 0,0 l/m 3,5 km/h (1 Bft) S-SE 0,00 h 0,102 mm 31 W/m 4,1 C 9,1 C 5,4 km/h (1 Bft)
19/02/2008 18:00 8,7 C 72 % 1025,4 hPa 0,0 l/m 2,0 km/h (1 Bft) S-SE 0,00 h 0,025 mm 0 W/m 3,9 C 8,7 C 3,2 km/h (1 Bft)
19/02/2008 19:00 7,7 C 73 % 1025,6 hPa 0,0 l/m 0,2 km/h (0 Bft) S-SE 0,00 h 0,000 mm 0 W/m 3,3 C 7,7 C 1,0 km/h (0 Bft)
19/02/2008 20:00 6,4 C 78 % 1025,5 hPa 0,0 l/m 0,7 km/h (0 Bft) N 0,00 h 0,025 mm 0 W/m 2,8 C 6,4 C 2,2 km/h (1 Bft)
19/02/2008 21:00 6,3 C 80 % 1025,5 hPa 0,0 l/m 0,3 km/h (0 Bft) N 0,00 h 0,025 mm 0 W/m 3,1 C 6,3 C 1,3 km/h (1 Bft)
19/02/2008 22:00 6,8 C 80 % 1025,6 hPa 0,0 l/m 1,9 km/h (1 Bft) N 0,00 h 0,025 mm 0 W/m 3,7 C 6,7 C 3,9 km/h (1 Bft)
19/02/2008 23:00 6,3 C 80 % 1025,4 hPa 0,0 l/m 4,0 km/h (1 Bft) N-NE 0,00 h 0,025 mm 0 W/m 3,1 C 5,8 C 6,4 km/h (2 Bft)
20/02/2008 00:00 6,5 C 80 % 1025,2 hPa 0,0 l/m 3,9 km/h (1 Bft) N-NO 0,00 h 0,025 mm 0 W/m 3,3 C 5,9 C 6,0 km/h (2 Bft)
20/02/2008 01:00 6,8 C 77 % 1025,0 hPa 0,0 l/m 6,3 km/h (2 Bft) N-NO 0,00 h 0,025 mm 0 W/m 3,0 C 5,7 C 9,5 km/h (2 Bft)
20/02/2008 02:00 6,8 C 76 % 1024,7 hPa 0,0 l/m 3,6 km/h (1 Bft) N-NO 0,00 h 0,025 mm 0 W/m 2,9 C 6,5 C 6,3 km/h (2 Bft)
20/02/2008 03:00 6,5 C 76 % 1024,1 hPa 0,0 l/m 2,8 km/h (1 Bft) N 0,00 h 0,025 mm 0 W/m 2,7 C 6,3 C 5,5 km/h (1 Bft)
20/02/2008 04:00 6,7 C 77 % 1024,0 hPa 0,0 l/m 2,4 km/h (1 Bft) N 0,00 h 0,025 mm 0 W/m 2,9 C 6,6 C 4,5 km/h (1 Bft)
20/02/2008 05:00 6,8 C 76 % 1024,0 hPa 0,0 l/m 3,7 km/h (1 Bft) N 0,00 h 0,025 mm 0 W/m 2,9 C 6,4 C 6,4 km/h (2 Bft)
20/02/2008 06:00 7,0 C 76 % 1024,0 hPa 0,0 l/m 3,9 km/h (1 Bft) N 0,00 h 0,025 mm 0 W/m 3,0 C 6,7 C 6,8 km/h (2 Bft)
20/02/2008 07:00 6,8 C 74 % 1024,3 hPa 0,0 l/m 3,6 km/h (1 Bft) N 0,03 h 0,025 mm 20 W/m 2,6 C 6,5 C 5,9 km/h (2 Bft)
20/02/2008 08:00 7,8 C 73 % 1024,6 hPa 0,0 l/m 4,9 km/h (1 Bft) N 0,75 h 0,025 mm 122 W/m 3,2 C 7,3 C 7,9 km/h (2 Bft)
20/02/2008 09:00 10,3 C 66 % 1024,8 hPa 0,0 l/m 7,5 km/h (2 Bft) N-NE 0,55 h 0,076 mm 219 W/m 4,2 C 10,0 C 11,8 km/h (2 Bft)
20/02/2008 10:00 12,0 C 63 % 1025,0 hPa 0,0 l/m 10,7 km/h (2 Bft) E-NE 0,62 h 0,127 mm 354 W/m 5,1 C 12,0 C 15,5 km/h (3 Bft)
20/02/2008 11:00 11,2 C 73 % 1024,9 hPa 0,0 l/m 15,5 km/h (3 Bft) E-NE 0,10 h 0,229 mm 162 W/m 6,6 C 11,2 C 21,8 km/h (4 Bft)
20/02/2008 12:00 11,2 C 78 % 1024,7 hPa 0,0 l/m 18,0 km/h (3 Bft) E-NE 0,07 h 0,127 mm 224 W/m 7,6 C 11,2 C 24,6 km/h (4 Bft)
20/02/2008 13:00 11,4 C 78 % 1024,2 hPa 0,0 l/m 17,1 km/h (3 Bft) E-NE 0,12 h 0,152 mm 234 W/m 7,7 C 11,4 C 23,6 km/h (4 Bft)
20/02/2008 14:00 11,3 C 79 % 1023,9 hPa 0,0 l/m 17,2 km/h (3 Bft) E-NE 0,00 h 0,152 mm 161 W/m 7,7 C 11,3 C 23,7 km/h (4 Bft)
20/02/2008 15:00 10,6 C 81 % 1023,8 hPa 0,0 l/m 13,6 km/h (3 Bft) E-NE 0,00 h 0,127 mm 103 W/m 7,5 C 10,6 C 19,8 km/h (4 Bft)
20/02/2008 16:00 10,3 C 80 % 1023,7 hPa 0,0 l/m 10,3 km/h (2 Bft) E-NE 0,00 h 0,076 mm 68 W/m 7,1 C 10,3 C 14,7 km/h (3 Bft)
20/02/2008 17:00 10,2 C 79 % 1023,4 hPa 0,0 l/m 5,6 km/h (1 Bft) E-NE 0,32 h 0,051 mm 50 W/m 6,7 C 10,2 C 8,3 km/h (2 Bft)
20/02/2008 18:00 9,4 C 80 % 1023,7 hPa 0,0 l/m 1,6 km/h (1 Bft) E-NE 0,00 h 0,051 mm 7 W/m 6,2 C 9,4 C 2,5 km/h (1 Bft)
20/02/2008 19:00 8,8 C 82 % 1024,0 hPa 0,0 l/m 3,4 km/h (1 Bft) O-NO 0,00 h 0,000 mm 0 W/m 5,9 C 8,7 C 4,8 km/h (1 Bft)
20/02/2008 20:00 8,6 C 82 % 1024,2 hPa 0,0 l/m 3,9 km/h (1 Bft) O-NO 0,00 h 0,025 mm 0 W/m 5,8 C 8,4 C 5,6 km/h (1 Bft)
20/02/2008 21:00 8,5 C 82 % 1024,4 hPa 0,0 l/m 3,4 km/h (1 Bft) O-NO 0,00 h 0,025 mm 0 W/m 5,6 C 8,3 C 4,8 km/h (1 Bft)
20/02/2008 22:00 7,7 C 82 % 1024,4 hPa 0,0 l/m 5,7 km/h (1 Bft) O 0,00 h 0,025 mm 0 W/m 4,8 C 6,9 C 7,8 km/h (2 Bft)
20/02/2008 23:00 7,4 C 82 % 1024,7 hPa 0,0 l/m 2,2 km/h (1 Bft) NO 0,00 h 0,025 mm 0 W/m 4,5 C 7,2 C 3,1 km/h (1 Bft)
21/02/2008 00:00 7,2 C 82 % 1024,8 hPa 0,0 l/m 2,7 km/h (1 Bft) N-NE 0,00 h 0,025 mm 0 W/m 4,3 C 6,9 C 4,2 km/h (1 Bft)
21/02/2008 01:00 7,0 C 81 % 1024,4 hPa 0,0 l/m 2,5 km/h (1 Bft) N-NE 0,00 h 0,025 mm 0 W/m 4,1 C 7,0 C 4,5 km/h (1 Bft)
21/02/2008 02:00 7,1 C 81 % 1024,4 hPa 0,0 l/m 1,2 km/h (1 Bft) N 0,00 h 0,025 mm 0 W/m 4,1 C 7,0 C 2,4 km/h (1 Bft)
21/02/2008 03:00 7,1 C 76 % 1024,3 hPa 0,0 l/m 6,6 km/h (2 Bft) O 0,00 h 0,025 mm 0 W/m 3,2 C 6,0 C 9,4 km/h (2 Bft)
21/02/2008 04:00 6,9 C 73 % 1024,1 hPa 0,0 l/m 7,0 km/h (2 Bft) O 0,00 h 0,025 mm 0 W/m 2,3 C 5,6 C 9,2 km/h (2 Bft)
21/02/2008 05:00 6,7 C 72 % 1024,3 hPa 0,0 l/m 5,6 km/h (1 Bft) O-NO 0,00 h 0,025 mm 0 W/m 2,0 C 5,8 C 7,6 km/h (2 Bft)
21/02/2008 06:00 6,6 C 73 % 1024,6 hPa 0,0 l/m 5,6 km/h (1 Bft) O 0,00 h 0,025 mm 0 W/m 2,1 C 5,7 C 7,8 km/h (2 Bft)
21/02/2008 07:00 7,0 C 73 % 1025,2 hPa 0,0 l/m 7,9 km/h (2 Bft) O-NO 0,00 h 0,025 mm 14 W/m 2,4 C 5,5 C 11,1 km/h (2 Bft)
21/02/2008 08:00 7,5 C 72 % 1025,6 hPa 0,0 l/m 5,9 km/h (2 Bft) O-NO 0,00 h 0,025 mm 63 W/m 2,9 C 6,7 C 8,5 km/h (2 Bft)
21/02/2008 09:00 8,5 C 72 % 1026,0 hPa 0,0 l/m 0,3 km/h (0 Bft) O-NO 0,05 h 0,051 mm 150 W/m 3,6 C 8,5 C 0,7 km/h (0 Bft)
21/02/2008 10:00 11,5 C 63 % 1026,1 hPa 0,0 l/m 2,3 km/h (1 Bft) S-SO 0,92 h 0,076 mm 393 W/m 4,6 C 11,5 C 4,1 km/h (1 Bft)
21/02/2008 11:00 13,2 C 57 % 1026,4 hPa 0,0 l/m 6,0 km/h (2 Bft) S 1,00 h 0,203 mm 527 W/m 4,9 C 13,2 C 9,7 km/h (2 Bft)
21/02/2008 12:00 13,8 C 57 % 1026,2 hPa 0,0 l/m 7,4 km/h (2 Bft) S-SE 1,00 h 0,305 mm 563 W/m 5,4 C 13,8 C 11,4 km/h (2 Bft)
21/02/2008 13:00 14,3 C 62 % 1025,6 hPa 0,0 l/m 7,7 km/h (2 Bft) E 1,00 h 0,330 mm 547 W/m 7,1 C 14,3 C 12,1 km/h (2 Bft)
21/02/2008 14:00 13,9 C 67 % 1025,0 hPa 0,0 l/m 8,7 km/h (2 Bft) E 1,00 h 0,330 mm 467 W/m 7,9 C 13,9 C 13,6 km/h (3 Bft)
21/02/2008 15:00 13,0 C 70 % 1024,9 hPa 0,0 l/m 5,4 km/h (1 Bft) E 0,98 h 0,279 mm 333 W/m 7,8 C 13,0 C 8,8 km/h (2 Bft)
21/02/2008 16:00 12,4 C 73 % 1024,9 hPa 0,0 l/m 4,4 km/h (1 Bft) E 0,63 h 0,178 mm 170 W/m 7,7 C 12,4 C 7,0 km/h (2 Bft)
21/02/2008 17:00 11,2 C 77 % 1025,2 hPa 0,0 l/m 0,3 km/h (0 Bft) E-SE 0,03 h 0,102 mm 33 W/m 7,3 C 11,2 C 1,2 km/h (1 Bft)
21/02/2008 18:00 10,1 C 79 % 1025,6 hPa 0,0 l/m 1,3 km/h (1 Bft) E-SE 0,00 h 0,025 mm 6 W/m 6,6 C 10,1 C 2,0 km/h (1 Bft)
21/02/2008 19:00 9,6 C 84 % 1026,1 hPa 0,0 l/m 0,7 km/h (0 Bft) E-SE 0,00 h 0,000 mm 0 W/m 7,0 C 9,6 C 1,5 km/h (1 Bft)
21/02/2008 20:00 9,8 C 84 % 1026,5 hPa 0,0 l/m 2,8 km/h (1 Bft) SE 0,00 h 0,025 mm 0 W/m 7,2 C 9,8 C 4,1 km/h (1 Bft)
21/02/2008 21:00 9,6 C 83 % 1026,8 hPa 0,0 l/m 1,3 km/h (1 Bft) S 0,00 h 0,025 mm 0 W/m 6,9 C 9,6 C 2,5 km/h (1 Bft)
21/02/2008 22:00 8,6 C 85 % 1027,3 hPa 0,0 l/m 3,5 km/h (1 Bft) O-NO 0,00 h 0,025 mm 0 W/m 6,2 C 8,5 C 5,2 km/h (1 Bft)
21/02/2008 23:00 7,9 C 87 % 1027,4 hPa 0,0 l/m 3,5 km/h (1 Bft) O-NO 0,00 h 0,025 mm 0 W/m 5,8 C 7,8 C 5,4 km/h (1 Bft)
22/02/2008 00:00 7,4 C 87 % 1027,4 hPa 0,0 l/m 3,4 km/h (1 Bft) NO 0,00 h 0,025 mm 0 W/m 5,5 C 7,2 C 5,3 km/h (1 Bft)
22/02/2008 01:00 7,3 C 87 % 1027,3 hPa 0,0 l/m 3,8 km/h (1 Bft) NO 0,00 h 0,025 mm 0 W/m 5,3 C 7,1 C 5,4 km/h (1 Bft)
22/02/2008 02:00 6,8 C 87 % 1027,4 hPa 0,0 l/m 5,5 km/h (1 Bft) NO 0,00 h 0,025 mm 0 W/m 4,8 C 6,0 C 7,3 km/h (2 Bft)
22/02/2008 03:00 7,0 C 85 % 1026,9 hPa 0,0 l/m 6,7 km/h (2 Bft) O-NO 0,00 h 0,025 mm 0 W/m 4,6 C 5,8 C 9,0 km/h (2 Bft)
22/02/2008 04:00 6,7 C 81 % 1026,6 hPa 0,0 l/m 4,2 km/h (1 Bft) O-NO 0,00 h 0,025 mm 0 W/m 3,7 C 6,2 C 6,5 km/h (2 Bft)
22/02/2008 05:00 6,6 C 81 % 1026,8 hPa 0,0 l/m 5,0 km/h (1 Bft) O-NO 0,00 h 0,025 mm 0 W/m 3,5 C 5,9 C 6,9 km/h (2 Bft)
22/02/2008 06:00 6,8 C 79 % 1027,1 hPa 0,0 l/m 5,6 km/h (1 Bft) O-NO 0,00 h 0,025 mm 0 W/m 3,4 C 6,0 C 7,9 km/h (2 Bft)
22/02/2008 07:00 6,8 C 78 % 1027,1 hPa 0,0 l/m 4,5 km/h (1 Bft) O-NO 0,10 h 0,025 mm 22 W/m 3,2 C 6,3 C 6,8 km/h (2 Bft)
22/02/2008 08:00 8,1 C 75 % 1027,4 hPa 0,0 l/m 2,6 km/h (1 Bft) O-NO 0,97 h 0,025 mm 133 W/m 4,0 C 8,0 C 3,9 km/h (1 Bft)
22/02/2008 09:00 11,1 C 69 % 1027,8 hPa 0,0 l/m 1,2 km/h (1 Bft) N 1,00 h 0,076 mm 297 W/m 5,5 C 11,1 C 2,6 km/h (1 Bft)
22/02/2008 10:00 12,4 C 68 % 1028,2 hPa 0,0 l/m 3,5 km/h (1 Bft) E-SE 1,00 h 0,152 mm 431 W/m 6,6 C 12,4 C 5,6 km/h (1 Bft)
22/02/2008 11:00 14,0 C 63 % 1028,5 hPa 0,0 l/m 4,7 km/h (1 Bft) E 1,00 h 0,229 mm 526 W/m 7,1 C 14,0 C 7,6 km/h (2 Bft)
22/02/2008 12:00 14,6 C 64 % 1028,3 hPa 0,0 l/m 6,4 km/h (2 Bft) E 1,00 h 0,279 mm 550 W/m 7,8 C 14,6 C 10,7 km/h (2 Bft)
22/02/2008 13:00 14,7 C 67 % 1027,7 hPa 0,0 l/m 6,7 km/h (2 Bft) E 1,00 h 0,305 mm 558 W/m 8,6 C 14,7 C 11,1 km/h (2 Bft)
22/02/2008 14:00 14,3 C 69 % 1027,2 hPa 0,0 l/m 7,6 km/h (2 Bft) S-SE 0,90 h 0,305 mm 461 W/m 8,6 C 14,3 C 12,4 km/h (3 Bft)
22/02/2008 15:00 13,6 C 74 % 1027,0 hPa 0,0 l/m 8,6 km/h (2 Bft) S-SE 0,53 h 0,254 mm 254 W/m 9,2 C 13,6 C 12,7 km/h (3 Bft)
22/02/2008 16:00 12,0 C 80 % 1027,3 hPa 0,0 l/m 6,7 km/h (2 Bft) S-SE 0,00 h 0,152 mm 52 W/m 8,6 C 12,0 C 9,5 km/h (2 Bft)
22/02/2008 17:00 11,4 C 81 % 1027,5 hPa 0,0 l/m 3,3 km/h (1 Bft) S-SE 0,00 h 0,051 mm 13 W/m 8,3 C 11,4 C 5,2 km/h (1 Bft)
22/02/2008 18:00 11,2 C 82 % 1027,9 hPa 0,0 l/m 2,5 km/h (1 Bft) S-SO 0,00 h 0,025 mm 0 W/m 8,2 C 11,2 C 3,9 km/h (1 Bft)
22/02/2008 19:00 10,8 C 84 % 1028,2 hPa 0,0 l/m 0,0 km/h (0 Bft) N 0,00 h 0,000 mm 0 W/m 8,3 C 10,8 C 0,0 km/h (0 Bft)
22/02/2008 20:00 10,3 C 85 % 1028,4 hPa 0,0 l/m 0,0 km/h (0 Bft) N 0,00 h 0,025 mm 0 W/m 7,9 C 10,3 C 0,0 km/h (0 Bft)
22/02/2008 21:00 9,8 C 86 % 1028,5 hPa 0,0 l/m 0,0 km/h (0 Bft) N 0,00 h 0,025 mm 0 W/m 7,6 C 9,8 C 0,0 km/h (0 Bft)
22/02/2008 22:00 10,0 C 87 % 1028,4 hPa 0,0 l/m 0,0 km/h (0 Bft) N 0,00 h 0,025 mm 0 W/m 7,9 C 10,0 C 0,0 km/h (0 Bft)
22/02/2008 23:00 10,1 C 88 % 1028,3 hPa 0,0 l/m 0,9 km/h (0 Bft) S-SO 0,00 h 0,025 mm 0 W/m 8,2 C 10,1 C 1,4 km/h (1 Bft)
23/02/2008 00:00 10,1 C 88 % 1028,3 hPa 0,0 l/m 1,8 km/h (1 Bft) S-SO 0,00 h 0,025 mm 0 W/m 8,3 C 10,1 C 3,3 km/h (1 Bft)
23/02/2008 01:00 9,8 C 88 % 1028,0 hPa 0,0 l/m 2,4 km/h (1 Bft) S-SO 0,00 h 0,025 mm 0 W/m 7,8 C 9,8 C 4,0 km/h (1 Bft)
23/02/2008 02:00 9,5 C 86 % 1027,8 hPa 0,0 l/m 1,5 km/h (1 Bft) SO 0,00 h 0,025 mm 0 W/m 7,4 C 9,5 C 2,6 km/h (1 Bft)
23/02/2008 03:00 9,3 C 86 % 1027,4 hPa 0,0 l/m 0,3 km/h (0 Bft) S-SO 0,00 h 0,025 mm 0 W/m 7,1 C 9,3 C 0,8 km/h (0 Bft)
23/02/2008 04:00 9,1 C 86 % 1027,3 hPa 0,0 l/m 1,4 km/h (1 Bft) S-SO 0,00 h 0,025 mm 0 W/m 6,9 C 9,1 C 2,3 km/h (1 Bft)
23/02/2008 05:00 9,1 C 86 % 1027,1 hPa 0,0 l/m 3,0 km/h (1 Bft) SO 0,00 h 0,025 mm 0 W/m 6,9 C 9,0 C 4,3 km/h (1 Bft)
23/02/2008 06:00 8,9 C 85 % 1027,1 hPa 0,0 l/m 2,0 km/h (1 Bft) SO 0,00 h 0,025 mm 0 W/m 6,6 C 8,9 C 3,1 km/h (1 Bft)
23/02/2008 07:00 8,4 C 85 % 1027,6 hPa 0,0 l/m 0,9 km/h (0 Bft) SO 0,00 h 0,000 mm 17 W/m 6,1 C 8,4 C 1,9 km/h (1 Bft)
23/02/2008 08:00 8,6 C 83 % 1028,0 hPa 0,0 l/m 1,1 km/h (1 Bft) SO 0,00 h 0,000 mm 84 W/m 5,9 C 8,6 C 2,2 km/h (1 Bft)
23/02/2008 09:00 10,4 C 81 % 1028,3 hPa 0,0 l/m 0,9 km/h (0 Bft) E-SE 0,87 h 0,051 mm 242 W/m 7,2 C 10,4 C 1,7 km/h (1 Bft)
23/02/2008 10:00 12,3 C 77 % 1028,3 hPa 0,0 l/m 4,7 km/h (1 Bft) S 1,00 h 0,127 mm 482 W/m 8,4 C 12,3 C 7,7 km/h (2 Bft)
23/02/2008 11:00 13,5 C 74 % 1028,3 hPa 0,0 l/m 5,8 km/h (2 Bft) E 1,00 h 0,254 mm 534 W/m 9,0 C 13,5 C 9,3 km/h (2 Bft)
23/02/2008 12:00 13,7 C 74 % 1027,9 hPa 0,0 l/m 5,1 km/h (1 Bft) E 0,62 h 0,279 mm 404 W/m 9,1 C 13,7 C 8,7 km/h (2 Bft)
23/02/2008 13:00 13,8 C 72 % 1027,6 hPa 0,0 l/m 7,1 km/h (2 Bft) S-SE 0,88 h 0,254 mm 420 W/m 8,9 C 13,8 C 11,9 km/h (2 Bft)
23/02/2008 14:00 13,0 C 74 % 1027,3 hPa 0,0 l/m 5,5 km/h (1 Bft) SE 0,00 h 0,229 mm 157 W/m 8,5 C 13,0 C 9,2 km/h (2 Bft)
23/02/2008 15:00 12,5 C 76 % 1027,2 hPa 0,0 l/m 3,5 km/h (1 Bft) S-SE 0,00 h 0,102 mm 109 W/m 8,5 C 12,5 C 6,4 km/h (2 Bft)
23/02/2008 16:00 11,9 C 78 % 1027,3 hPa 0,0 l/m 3,3 km/h (1 Bft) SE 0,00 h 0,076 mm 59 W/m 8,3 C 11,9 C 5,8 km/h (2 Bft)
23/02/2008 17:00 11,5 C 80 % 1027,4 hPa 0,0 l/m 1,6 km/h (1 Bft) SE 0,00 h 0,051 mm 17 W/m 8,2 C 11,5 C 3,3 km/h (1 Bft)
23/02/2008 18:00 11,0 C 83 % 1027,8 hPa 0,0 l/m 1,8 km/h (1 Bft) SE 0,00 h 0,025 mm 0 W/m 8,3 C 11,0 C 3,1 km/h (1 Bft)
23/02/2008 19:00 10,8 C 86 % 1028,3 hPa 0,0 l/m 1,0 km/h (0 Bft) SE 0,00 h 0,000 mm 0 W/m 8,5 C 10,8 C 1,8 km/h (1 Bft)
23/02/2008 20:00 10,6 C 87 % 1028,5 hPa 0,0 l/m 0,2 km/h (0 Bft) SE 0,00 h 0,025 mm 0 W/m 8,5 C 10,6 C 0,3 km/h (0 Bft)
23/02/2008 21:00 10,4 C 88 % 1028,5 hPa 0,0 l/m 0,0 km/h (0 Bft) N 0,00 h 0,025 mm 0 W/m 8,4 C 10,4 C 0,0 km/h (0 Bft)
23/02/2008 22:00 10,3 C 88 % 1028,7 hPa 0,0 l/m 0,1 km/h (0 Bft) SE 0,00 h 0,025 mm 0 W/m 8,4 C 10,3 C 0,2 km/h (0 Bft)
23/02/2008 23:00 10,3 C 87 % 1028,9 hPa 0,0 l/m 0,5 km/h (0 Bft) SE 0,00 h 0,000 mm 0 W/m 8,2 C 10,3 C 1,1 km/h (1 Bft)
24/02/2008 00:00 10,0 C 86 % 1028,8 hPa 0,0 l/m 2,7 km/h (1 Bft) NO 0,00 h 0,025 mm 0 W/m 7,7 C 9,9 C 4,5 km/h (1 Bft)
24/02/2008 01:00 9,9 C 82 % 1028,4 hPa 0,0 l/m 1,4 km/h (1 Bft) O-NO 0,00 h 0,025 mm 0 W/m 7,1 C 9,9 C 2,4 km/h (1 Bft)
24/02/2008 02:00 9,8 C 81 % 1028,5 hPa 0,0 l/m 1,4 km/h (1 Bft) O-NO 0,00 h 0,025 mm 0 W/m 6,7 C 9,8 C 2,7 km/h (1 Bft)
24/02/2008 03:00 9,4 C 82 % 1028,4 hPa 0,0 l/m 4,0 km/h (1 Bft) O-NO 0,00 h 0,025 mm 0 W/m 6,5 C 9,2 C 5,7 km/h (1 Bft)
24/02/2008 04:00 9,1 C 82 % 1028,1 hPa 0,0 l/m 6,3 km/h (2 Bft) NO 0,00 h 0,025 mm 0 W/m 6,1 C 8,3 C 9,2 km/h (2 Bft)
24/02/2008 05:00 8,8 C 81 % 1028,2 hPa 0,0 l/m 8,6 km/h (2 Bft) NO 0,00 h 0,025 mm 0 W/m 5,7 C 7,5 C 12,3 km/h (3 Bft)
24/02/2008 06:00 8,6 C 80 % 1028,2 hPa 0,0 l/m 9,1 km/h (2 Bft) O-NO 0,00 h 0,025 mm 0 W/m 5,4 C 7,2 C 12,9 km/h (3 Bft)
24/02/2008 07:00 8,0 C 80 % 1028,5 hPa 0,0 l/m 4,1 km/h (1 Bft) N-NO 0,02 h 0,025 mm 17 W/m 4,8 C 7,6 C 6,5 km/h (2 Bft)
24/02/2008 08:00 8,1 C 80 % 1028,9 hPa 0,0 l/m 2,4 km/h (1 Bft) NO 0,00 h 0,025 mm 80 W/m 4,8 C 8,0 C 4,2 km/h (1 Bft)
24/02/2008 09:00 9,8 C 77 % 1029,2 hPa 0,0 l/m 0,6 km/h (0 Bft) NO 0,00 h 0,051 mm 169 W/m 5,9 C 9,8 C 1,5 km/h (1 Bft)
24/02/2008 10:00 11,6 C 72 % 1029,2 hPa 0,0 l/m 3,0 km/h (1 Bft) S-SO 0,50 h 0,076 mm 370 W/m 6,7 C 11,6 C 5,2 km/h (1 Bft)
24/02/2008 11:00 13,1 C 67 % 1028,9 hPa 0,0 l/m 6,2 km/h (2 Bft) S 0,88 h 0,203 mm 553 W/m 7,2 C 13,1 C 10,1 km/h (2 Bft)
24/02/2008 12:00 13,5 C 67 % 1028,4 hPa 0,0 l/m 6,4 km/h (2 Bft) E 0,63 h 0,305 mm 459 W/m 7,5 C 13,5 C 9,9 km/h (2 Bft)
24/02/2008 13:00 14,7 C 64 % 1027,7 hPa 0,0 l/m 6,3 km/h (2 Bft) E 1,00 h 0,279 mm 568 W/m 7,9 C 14,7 C 11,2 km/h (2 Bft)
24/02/2008 14:00 14,6 C 64 % 1027,3 hPa 0,0 l/m 6,5 km/h (2 Bft) E 1,00 h 0,330 mm 498 W/m 7,9 C 14,6 C 11,1 km/h (2 Bft)
24/02/2008 15:00 13,8 C 67 % 1027,1 hPa 0,0 l/m 9,3 km/h (2 Bft) E 1,00 h 0,279 mm 380 W/m 7,7 C 13,8 C 13,9 km/h (3 Bft)
24/02/2008 16:00 13,0 C 70 % 1026,9 hPa 0,0 l/m 4,7 km/h (1 Bft) E 1,00 h 0,229 mm 229 W/m 7,6 C 13,0 C 7,2 km/h (2 Bft)
24/02/2008 17:00 11,8 C 74 % 1027,0 hPa 0,0 l/m 1,7 km/h (1 Bft) E-SE 0,40 h 0,127 mm 68 W/m 7,3 C 11,8 C 3,7 km/h (1 Bft)
24/02/2008 18:00 10,0 C 79 % 1027,1 hPa 0,0 l/m 0,5 km/h (0 Bft) E-SE 0,00 h 0,051 mm 6 W/m 6,5 C 10,0 C 1,0 km/h (0 Bft)
24/02/2008 19:00 9,0 C 81 % 1027,2 hPa 0,0 l/m 0,0 km/h (0 Bft) N 0,00 h 0,000 mm 0 W/m 5,9 C 9,0 C 0,0 km/h (0 Bft)
24/02/2008 20:00 8,7 C 85 % 1027,1 hPa 0,0 l/m 2,4 km/h (1 Bft) E-SE 0,00 h 0,025 mm 0 W/m 6,3 C 8,7 C 3,2 km/h (1 Bft)
24/02/2008 21:00 8,1 C 87 % 1027,0 hPa 0,0 l/m 3,1 km/h (1 Bft) O 0,00 h 0,025 mm 0 W/m 6,0 C 7,8 C 4,3 km/h (1 Bft)
24/02/2008 22:00 7,8 C 88 % 1027,0 hPa 0,0 l/m 6,1 km/h (2 Bft) O 0,00 h 0,025 mm 0 W/m 6,0 C 6,9 C 7,6 km/h (2 Bft)
24/02/2008 23:00 7,4 C 89 % 1027,0 hPa 0,0 l/m 4,4 km/h (1 Bft) O 0,00 h 0,025 mm 0 W/m 5,7 C 7,0 C 5,4 km/h (1 Bft)
Min-Date _ 18/02/08 19/02/08 20/02/08 - 18/02/08 - - - - 18/02/08 18/02/08 18/02/08
_ Min-Heure 06:34 12:54 17:15 - 06:16 - - - - 06:34 03:16 08:48
Minimum _ 1,2 C 52 % 1023,4 hPa - 0,0 km/h (0 Bft) - - - - -2,2 C -0,4 C 0,0 km/h (0 Bft)
Max-Date _ 22/02/08 24/02/08 18/02/08 18/02/08 20/02/08 - 18/02/08 19/02/08 24/02/08 22/02/08 22/02/08 20/02/08
_ Max-Heure 13:17 00:19 00:00 00:00 12:52 - 07:37 14:00 11:24 15:03 13:17 12:52
Maximum _ 15,4 C 90 % 1036,4 hPa 0,0 l/m 27,4 km/h
E-NE (4 Bft)
- 0,02 h 0,330 mm 810 W/m 9,7 C 15,4 C 33,8 km/h
E-NE (5 Bft)
Moyenne _ 9,0 C 76 % 1027,2 hPa #0,0 l/m 4,7 km/h (1 Bft) O-NO #43:09 h #14,059 mm 255 W/m 5,0 C 8,7 C 7,1 km/h (2 Bft)
Roquefort les pins